Time;durP1;ratioP1;P1;durP2;ratioP2;P2;SDS_P1;SDS_P2;PMS_P1;PMS_P2;Temp;Humidity;BMP_temperature;BMP_pressure;BME280_temperature;BME280_humidity;BME280_pressure;Samples;Min_cycle;Max_cycle;Signal;HPM_P1;HPM_P2
2023/01/03 00:02:19;;;;;;;0.87;0.87;;;;;7.70;97026.00;;;;5054871;28;20249;-58
2023/01/03 00:04:47;;;;;;;0.60;0.60;;;;;7.90;97024.00;;;;5055072;28;20231;-58
2023/01/03 00:07:32;;;;;;;0.60;0.60;;;;;7.70;97031.00;;;;5054750;28;20556;-58
2023/01/03 00:10:00;;;;;;;0.60;0.60;;;;;7.60;97023.00;;;;5055012;28;20581;-58
2023/01/03 00:12:30;;;;;;;0.73;0.73;;;;;7.40;97006.00;;;;5054679;28;20271;-58
2023/01/03 00:14:59;;;;;;;0.50;0.50;;;;;7.50;97024.00;;;;5054806;28;20223;-58
2023/01/03 00:17:26;;;;;;;0.50;0.50;;;;;7.50;97018.00;;;;5054711;28;20189;-58
2023/01/03 00:19:54;;;;;;;0.50;0.50;;;;;7.40;97017.00;;;;5054494;28;20196;-58
2023/01/03 00:22:21;;;;;;;0.53;0.53;;;;;7.30;97023.00;;;;5054479;28;20204;-58
2023/01/03 00:24:51;;;;;;;0.73;0.73;;;;;7.30;97023.00;;;;5054253;28;20771;-58
2023/01/03 00:27:19;;;;;;;0.60;0.60;;;;;7.30;97028.00;;;;5054382;28;20651;-58
2023/01/03 00:29:48;;;;;;;0.50;0.50;;;;;7.30;97031.00;;;;5054295;28;20192;-58
2023/01/03 00:32:18;;;;;;;0.60;0.60;;;;;7.40;97022.00;;;;5054560;28;20189;-58
2023/01/03 00:34:47;;;;;;;0.50;0.50;;;;;7.30;97021.00;;;;5054302;28;20695;-58
2023/01/03 00:37:15;;;;;;;0.50;0.50;;;;;7.50;97033.00;;;;5054414;28;20555;-58
2023/01/03 00:39:42;;;;;;;0.60;0.60;;;;;7.60;97019.00;;;;5054371;28;20199;-58
2023/01/03 00:42:10;;;;;;;0.63;0.63;;;;;7.60;97021.00;;;;5054545;28;20227;-58
2023/01/03 00:44:37;;;;;;;0.67;0.67;;;;;7.60;97014.00;;;;5053726;28;20285;-58
2023/01/03 00:47:06;;;;;;;0.60;0.60;;;;;7.50;97027.00;;;;5053994;28;20196;-58
2023/01/03 00:49:34;;;;;;;0.50;0.50;;;;;7.30;97018.00;;;;5053970;28;20245;-58
2023/01/03 00:52:01;;;;;;;0.70;0.70;;;;;7.40;97019.00;;;;5053649;28;20200;-58
2023/01/03 00:54:28;;;;;;;0.60;0.60;;;;;7.30;97019.00;;;;5054340;28;20265;-58
2023/01/03 00:56:56;;;;;;;0.70;0.70;;;;;7.30;97010.00;;;;5053837;28;20660;-58
2023/01/03 00:59:23;;;;;;;0.50;0.50;;;;;7.40;96999.00;;;;5053775;28;20188;-58
2023/01/03 01:01:53;;;;;;;0.50;0.50;;;;;7.50;97018.00;;;;5035865;28;20250;-58
2023/01/03 01:04:24;;;;;;;0.50;0.50;;;;;7.60;97011.00;;;;5053631;28;20722;-58
2023/01/03 01:06:53;;;;;;;0.50;0.50;;;;;7.60;97017.00;;;;5053635;28;20207;-58
2023/01/03 01:09:23;;;;;;;0.60;0.60;;;;;7.50;97018.00;;;;5053615;28;20257;-58
2023/01/03 01:11:51;;;;;;;0.70;0.70;;;;;7.40;97014.00;;;;5053914;28;20176;-58
2023/01/03 01:14:20;;;;;;;0.77;0.77;;;;;7.40;97019.00;;;;5053488;28;20691;-58
2023/01/03 01:16:50;;;;;;;1.70;1.60;;;;;7.50;97018.00;;;;5053500;28;20188;-58
2023/01/03 01:19:18;;;;;;;0.50;0.50;;;;;7.40;97031.00;;;;5054014;28;20196;-58
2023/01/03 01:21:47;;;;;;;0.57;0.57;;;;;7.30;97029.00;;;;5053957;28;20199;-58
2023/01/03 01:24:14;;;;;;;0.60;0.60;;;;;7.40;97032.00;;;;5035445;28;20212;-58
2023/01/03 01:26:42;;;;;;;0.60;0.60;;;;;7.50;97026.00;;;;5053303;28;20216;-58
2023/01/03 01:29:12;;;;;;;0.60;0.60;;;;;7.50;97025.00;;;;5053310;28;20200;-58
2023/01/03 01:31:40;;;;;;;0.50;0.50;;;;;7.60;97032.00;;;;5053172;28;20196;-58
2023/01/03 01:34:08;;;;;;;0.50;0.50;;;;;7.60;97026.00;;;;5053423;28;20630;-58
2023/01/03 01:36:38;;;;;;;0.50;0.50;;;;;7.70;97044.00;;;;5053183;28;20192;-58
2023/01/03 01:39:13;;;;;;;0.50;0.50;;;;;7.70;97047.00;;;;5053681;28;20192;-58
2023/01/03 01:44:48;;;;;;;0.60;0.60;;;;;7.50;97039.00;;;;5053113;28;20230;-58
2023/01/03 01:47:27;;;;;;;0.77;0.70;;;;;7.50;97038.00;;;;5053278;28;20207;-58
2023/01/03 01:50:15;;;;;;;0.50;0.50;;;;;7.50;97035.00;;;;5053601;28;20188;-58
2023/01/03 01:52:48;;;;;;;0.57;0.57;;;;;7.80;97029.00;;;;5053189;28;20176;-58
2023/01/03 01:55:20;;;;;;;2.77;0.90;;;;;7.50;97023.00;;;;5053215;28;20270;-58
2023/01/03 01:57:48;;;;;;;0.60;0.60;;;;;7.50;97030.00;;;;5053253;28;20176;-58
2023/01/03 02:00:16;;;;;;;0.70;0.70;;;;;7.50;97033.00;;;;5052936;28;20188;-58
2023/01/03 02:02:45;;;;;;;0.60;0.60;;;;;7.30;97032.00;;;;5052913;28;20191;-58
2023/01/03 02:05:13;;;;;;;0.60;0.60;;;;;7.50;97040.00;;;;5055241;28;20690;-62
2023/01/03 02:07:40;;;;;;;0.60;0.60;;;;;7.50;97052.00;;;;5057094;28;20249;-58
2023/01/03 02:10:09;;;;;;;0.50;0.50;;;;;7.50;97041.00;;;;5057043;28;20200;-58
2023/01/03 02:15:49;;;;;;;0.50;0.50;;;;;7.00;97033.00;;;;5056684;28;20302;-58
2023/01/03 02:18:35;;;;;;;0.70;0.70;;;;;7.00;97032.00;;;;5056829;28;20242;-58
2023/01/03 02:21:35;;;;;;;0.70;0.70;;;;;7.00;97048.00;;;;5057357;28;20181;-59
2023/01/03 02:24:31;;;;;;;0.70;0.70;;;;;7.10;97044.00;;;;5056721;28;20215;-58
2023/01/03 02:27:06;;;;;;;0.80;0.80;;;;;7.10;97035.00;;;;5056856;28;20249;-56
2023/01/03 02:30:11;;;;;;;0.50;0.50;;;;;7.00;97035.00;;;;5057184;28;20184;-58
2023/01/03 02:32:44;;;;;;;0.70;0.70;;;;;7.00;97045.00;;;;5025926;28;20570;-59
2023/01/03 02:35:18;;;;;;;0.50;0.50;;;;;6.90;97034.00;;;;5056474;28;20208;-58
2023/01/03 02:37:56;;;;;;;0.60;0.60;;;;;7.00;97029.00;;;;5056541;28;20189;-58
2023/01/03 02:40:31;;;;;;;1.23;1.13;;;;;6.90;97029.00;;;;5056460;28;20627;-59
2023/01/03 02:43:05;;;;;;;0.90;0.90;;;;;6.90;97037.00;;;;5056679;28;20183;-58
2023/01/03 02:45:51;;;;;;;0.70;0.70;;;;;6.80;97040.00;;;;5056083;28;20222;-58
2023/01/03 02:48:27;;;;;;;0.60;0.60;;;;;6.80;97043.00;;;;5056644;28;20176;-59
2023/01/03 02:50:59;;;;;;;0.60;0.60;;;;;6.80;97056.00;;;;5056202;28;20176;-56
2023/01/03 02:53:30;;;;;;;0.90;0.90;;;;;6.70;97052.00;;;;5056361;28;20184;-56
2023/01/03 02:56:01;;;;;;;0.63;0.63;;;;;6.70;97048.00;;;;5055997;28;20210;-59
2023/01/03 02:58:33;;;;;;;0.57;0.57;;;;;6.60;97055.00;;;;5056461;28;20185;-58
2023/01/03 03:01:05;;;;;;;0.80;0.80;;;;;6.70;97051.00;;;;5056349;28;20177;-58
2023/01/03 03:03:36;;;;;;;1.37;1.27;;;;;6.70;97042.00;;;;5038148;28;20749;-62
2023/01/03 03:06:11;;;;;;;0.57;0.57;;;;;6.80;97052.00;;;;5038030;28;20667;-59
2023/01/03 03:08:38;;;;;;;0.50;0.50;;;;;6.80;97047.00;;;;5055960;28;20176;-59
2023/01/03 03:13:56;;;;;;;0.70;0.70;;;;;6.90;97037.00;;;;5056005;28;20287;-59
2023/01/03 03:25:02;;;;;;;0.60;0.60;;;;;6.60;97046.00;;;;5055563;28;20215;-58
2023/01/03 03:30:20;;;;;;;0.60;0.60;;;;;6.50;97038.00;;;;5056048;28;20190;-58
2023/01/03 03:32:51;;;;;;;0.60;0.60;;;;;6.50;97044.00;;;;5055770;28;20183;-58
2023/01/03 03:35:23;;;;;;;0.60;0.60;;;;;6.40;97050.00;;;;5055674;28;20706;-58
2023/01/03 03:37:55;;;;;;;0.50;0.50;;;;;6.30;97049.00;;;;5055447;28;20632;-58
2023/01/03 03:46:04;;;;;;;0.50;0.50;;;;;6.30;97057.00;;;;5021844;28;20285;-58
2023/01/03 03:51:22;;;;;;;0.93;0.93;;;;;6.20;97051.00;;;;5054150;28;20329;-58
2023/01/03 03:53:52;;;;;;;0.50;0.50;;;;;6.20;97050.00;;;;5055246;28;20609;-59
2023/01/03 03:56:23;;;;;;;0.60;0.60;;;;;6.20;97050.00;;;;5055071;28;20184;-58
2023/01/03 03:58:56;;;;;;;0.50;0.50;;;;;6.20;97054.00;;;;5055048;28;20181;-58
2023/01/03 04:01:26;;;;;;;0.80;0.80;;;;;6.10;97050.00;;;;5037100;28;20198;-58
2023/01/03 04:03:58;;;;;;;0.60;0.60;;;;;6.00;97061.00;;;;5036919;28;20633;-59
2023/01/03 04:06:30;;;;;;;0.60;0.60;;;;;6.00;97062.00;;;;5054771;28;20257;-58
2023/01/03 04:08:58;;;;;;;0.70;0.70;;;;;6.00;97054.00;;;;5055131;28;20606;-58
2023/01/03 04:11:26;;;;;;;1.50;0.90;;;;;6.00;97060.00;;;;5054735;28;20218;-59
2023/01/03 04:13:53;;;;;;;0.80;0.80;;;;;6.10;97061.00;;;;5054600;28;20659;-58
2023/01/03 04:16:21;;;;;;;0.70;0.70;;;;;6.10;97058.00;;;;5054667;28;20257;-59
2023/01/03 04:18:48;;;;;;;0.83;0.77;;;;;6.10;97061.00;;;;5055133;28;20280;-58
2023/01/03 04:21:17;;;;;;;0.70;0.70;;;;;6.10;97063.00;;;;5054547;28;20246;-58
2023/01/03 04:23:44;;;;;;;0.60;0.60;;;;;6.20;97060.00;;;;5054698;28;20196;-59
2023/01/03 04:26:11;;;;;;;0.63;0.63;;;;;6.20;97057.00;;;;5054847;28;20219;-58
2023/01/03 04:28:39;;;;;;;0.70;0.70;;;;;6.20;97065.00;;;;5054148;28;20188;-59
2023/01/03 04:31:06;;;;;;;0.90;0.90;;;;;6.20;97068.00;;;;5054287;28;20257;-58
2023/01/03 04:33:34;;;;;;;0.70;0.70;;;;;6.20;97064.00;;;;5054612;28;20203;-58
2023/01/03 04:36:01;;;;;;;0.93;0.93;;;;;6.10;97067.00;;;;5054495;28;20748;-59
2023/01/03 04:38:30;;;;;;;0.87;0.87;;;;;6.10;97067.00;;;;5054436;28;20253;-58
2023/01/03 04:41:02;;;;;;;0.60;0.60;;;;;6.10;97067.00;;;;5054112;28;20245;-59
2023/01/03 04:46:15;;;;;;;1.00;1.00;;;;;6.20;97062.00;;;;5053905;28;20310;-58
2023/01/03 04:48:42;;;;;;;0.70;0.70;;;;;6.10;97071.00;;;;5054295;28;20194;-59
2023/01/03 04:51:10;;;;;;;0.50;0.50;;;;;6.10;97070.00;;;;5053988;28;20196;-59
2023/01/03 04:53:39;;;;;;;1.30;1.10;;;;;6.00;97061.00;;;;5053846;28;20204;-59
2023/01/03 04:56:07;;;;;;;0.60;0.60;;;;;6.00;97069.00;;;;5053835;28;20200;-58
2023/01/03 04:58:34;;;;;;;0.60;0.60;;;;;6.00;97064.00;;;;5053825;28;20257;-58
2023/01/03 05:01:02;;;;;;;0.70;0.70;;;;;5.90;97059.00;;;;5035926;28;20206;-59
2023/01/03 05:03:30;;;;;;;0.90;0.90;;;;;5.70;97070.00;;;;5053803;28;20196;-59
2023/01/03 05:06:01;;;;;;;0.80;0.80;;;;;5.90;97058.00;;;;5053617;28;20224;-61
2023/01/03 05:08:28;;;;;;;0.70;0.70;;;;;5.90;97068.00;;;;5053712;28;20203;-59
2023/01/03 05:10:57;;;;;;;0.60;0.60;;;;;5.90;97075.00;;;;5053656;28;20199;-58
2023/01/03 05:13:25;;;;;;;0.60;0.60;;;;;5.90;97066.00;;;;5053593;28;20196;-58
2023/01/03 05:15:52;;;;;;;0.60;0.60;;;;;5.80;97073.00;;;;5053978;28;20238;-58
2023/01/03 05:18:19;;;;;;;0.80;0.80;;;;;5.80;97067.00;;;;5053406;28;20595;-59
2023/01/03 05:26:20;;;;;;;0.60;0.60;;;;;5.60;97072.00;;;;5053285;28;20180;-58
2023/01/03 05:28:51;;;;;;;1.00;1.00;;;;;5.50;97071.00;;;;5053393;28;20185;-58
2023/01/03 05:31:19;;;;;;;0.67;0.67;;;;;5.50;97074.00;;;;5053622;28;20195;-58
2023/01/03 05:33:47;;;;;;;1.60;0.97;;;;;5.20;97071.00;;;;5054238;28;20203;-59
2023/01/03 05:36:14;;;;;;;4.90;1.47;;;;;5.20;97080.00;;;;5053191;28;20191;-58
2023/01/03 05:38:42;;;;;;;0.77;0.73;;;;;5.30;97085.00;;;;5052711;28;20215;-58
2023/01/03 05:41:09;;;;;;;0.50;0.50;;;;;5.30;97082.00;;;;5053091;28;20192;-58
2023/01/03 05:43:38;;;;;;;0.67;0.67;;;;;5.40;97081.00;;;;5053046;28;20197;-59
2023/01/03 05:46:05;;;;;;;0.73;0.73;;;;;5.40;97091.00;;;;5053036;28;20261;-58
2023/01/03 05:48:33;;;;;;;1.00;1.00;;;;;5.50;97087.00;;;;5053102;28;20239;-59
2023/01/03 05:51:00;;;;;;;0.60;0.60;;;;;5.40;97095.00;;;;5053063;28;20203;-58
2023/01/03 05:53:27;;;;;;;0.93;0.93;;;;;5.40;97088.00;;;;5053268;28;20202;-58
2023/01/03 05:55:55;;;;;;;0.80;0.80;;;;;5.40;97098.00;;;;5053646;28;20737;-59
2023/01/03 05:58:22;;;;;;;0.93;0.90;;;;;5.40;97100.00;;;;5035059;28;20195;-58
2023/01/03 06:00:51;;;;;;;0.80;0.80;;;;;5.40;97098.00;;;;5034988;28;20671;-58
2023/01/03 06:03:19;;;;;;;0.50;0.50;;;;;5.30;97084.00;;;;5052984;28;20637;-59
2023/01/03 06:05:46;;;;;;;0.97;0.97;;;;;5.30;97094.00;;;;5052904;28;20223;-59
2023/01/03 06:08:13;;;;;;;0.90;0.90;;;;;5.30;97091.00;;;;5053083;28;20227;-59
2023/01/03 06:10:41;;;;;;;0.73;0.73;;;;;5.20;97092.00;;;;5052837;28;20275;-59
2023/01/03 06:13:08;;;;;;;1.00;1.00;;;;;5.30;97093.00;;;;5052822;28;20200;-59
2023/01/03 06:15:36;;;;;;;0.67;0.67;;;;;5.20;97105.00;;;;5052759;28;20221;-58
2023/01/03 06:18:04;;;;;;;0.60;0.60;;;;;5.40;97109.00;;;;5052834;28;20222;-58
2023/01/03 06:20:31;;;;;;;0.60;0.60;;;;;5.30;97109.00;;;;5052869;28;20227;-59
2023/01/03 06:22:58;;;;;;;0.70;0.70;;;;;5.50;97105.00;;;;5052787;28;20210;-58
2023/01/03 06:25:26;;;;;;;0.50;0.50;;;;;5.60;97109.00;;;;5052922;28;20230;-58
2023/01/03 06:27:54;;;;;;;0.80;0.80;;;;;5.80;97107.00;;;;5052647;28;20216;-59
2023/01/03 06:30:22;;;;;;;0.63;0.63;;;;;5.90;97112.00;;;;5053260;28;20206;-58
2023/01/03 06:32:49;;;;;;;0.60;0.60;;;;;6.00;97119.00;;;;5052954;28;20207;-58
2023/01/03 06:35:18;;;;;;;0.60;0.60;;;;;6.00;97118.00;;;;5052562;28;20257;-59
2023/01/03 06:37:45;;;;;;;5.67;5.17;;;;;5.90;97121.00;;;;5053203;28;20194;-56
2023/01/03 06:40:13;;;;;;;2.80;2.60;;;;;5.80;97110.00;;;;5053276;28;20207;-56
2023/01/03 06:42:41;;;;;;;2.33;2.13;;;;;5.80;97117.00;;;;5052519;28;20200;-59
2023/01/03 06:53:33;;;;;;;0.60;0.60;;;;;5.20;97123.00;;;;5056380;28;20187;-58
2023/01/03 06:56:00;;;;;;;0.60;0.60;;;;;5.00;97121.00;;;;5056485;28;20311;-59
2023/01/03 06:58:27;;;;;;;1.00;1.00;;;;;4.90;97124.00;;;;5056157;28;20242;-58
2023/01/03 07:00:56;;;;;;;0.70;0.70;;;;;5.00;97128.00;;;;5056096;28;20249;-58
2023/01/03 07:03:24;;;;;;;0.77;0.77;;;;;4.90;97128.00;;;;5056302;28;20196;-59
2023/01/03 07:05:53;;;;;;;0.70;0.70;;;;;4.80;97126.00;;;;5055958;28;20241;-58
2023/01/03 07:08:20;;;;;;;0.80;0.80;;;;;4.80;97124.00;;;;5038031;28;20772;-58
2023/01/03 07:10:48;;;;;;;0.80;0.80;;;;;4.80;97132.00;;;;5055905;28;20193;-58
2023/01/03 07:16:00;;;;;;;1.10;1.10;;;;;4.80;97128.00;;;;5055736;28;20223;-59
2023/01/03 07:18:28;;;;;;;1.20;1.10;;;;;4.80;97126.00;;;;5056033;28;20555;-59
2023/01/03 07:20:56;;;;;;;0.57;0.57;;;;;4.90;97134.00;;;;5055615;28;20201;-58
2023/01/03 07:23:24;;;;;;;0.60;0.60;;;;;4.70;97142.00;;;;5055933;28;20196;-58
2023/01/03 07:25:55;;;;;;;1.37;1.27;;;;;4.70;97146.00;;;;5055555;28;20228;-58
2023/01/03 07:28:23;;;;;;;0.90;0.90;;;;;4.70;97147.00;;;;5055787;28;20541;-58
2023/01/03 07:30:50;;;;;;;0.73;0.73;;;;;4.70;97149.00;;;;5055782;28;20192;-58
2023/01/03 07:33:18;;;;;;;0.60;0.60;;;;;4.60;97155.00;;;;5037660;28;20196;-58
2023/01/03 07:35:46;;;;;;;1.10;1.10;;;;;4.60;97147.00;;;;5055364;28;20212;-59
2023/01/03 07:38:15;;;;;;;1.23;1.20;;;;;4.60;97170.00;;;;5056099;28;20290;-58
2023/01/03 07:40:42;;;;;;;0.70;0.70;;;;;4.70;97155.00;;;;5055647;28;20528;-58
2023/01/03 07:45:55;;;;;;;1.50;1.43;;;;;4.60;97151.00;;;;5037707;28;20228;-57
2023/01/03 07:48:22;;;;;;;0.67;0.67;;;;;4.60;97151.00;;;;5055590;28;20219;-58
2023/01/03 07:50:50;;;;;;;1.37;1.27;;;;;4.70;97159.00;;;;5054986;28;20199;-58
2023/01/03 07:53:18;;;;;;;0.83;0.83;;;;;4.60;97157.00;;;;5055257;28;20195;-57
2023/01/03 07:55:46;;;;;;;0.90;0.90;;;;;4.70;97160.00;;;;5054795;28;20219;-57
2023/01/03 07:58:14;;;;;;;0.93;0.93;;;;;4.80;97154.00;;;;5052782;28;20266;-57
2023/01/03 08:00:41;;;;;;;1.50;1.30;;;;;4.80;97168.00;;;;5069718;28;20197;-58
2023/01/03 08:03:09;;;;;;;0.97;0.87;;;;;4.90;97167.00;;;;5071479;28;20662;-58
2023/01/03 08:05:37;;;;;;;1.20;1.20;;;;;4.80;97166.00;;;;5067587;28;20225;-57
2023/01/03 08:08:05;;;;;;;1.37;1.30;;;;;4.90;97174.00;;;;5052428;28;20210;-57
2023/01/03 08:13:19;;;;;;;0.80;0.80;;;;;5.10;97175.00;;;;5049787;28;20188;-58
2023/01/03 08:15:48;;;;;;;0.97;0.97;;;;;5.10;97175.00;;;;5049114;28;20218;-58
2023/01/03 08:18:17;;;;;;;1.40;1.30;;;;;5.20;97172.00;;;;5063856;28;20188;-58
2023/01/03 08:20:44;;;;;;;1.63;1.53;;;;;5.10;97167.00;;;;5072015;28;20707;-58
2023/01/03 08:23:11;;;;;;;1.33;1.30;;;;;5.10;97174.00;;;;5069440;28;21063;-57
2023/01/03 08:25:40;;;;;;;1.73;1.63;;;;;5.20;97171.00;;;;5070600;28;20224;-57
2023/01/03 08:28:09;;;;;;;1.07;1.07;;;;;5.10;97168.00;;;;5071990;28;20604;-58
2023/01/03 08:30:40;;;;;;;1.67;1.57;;;;;5.20;97174.00;;;;5056108;28;20233;-58
2023/01/03 08:33:11;;;;;;;0.90;0.90;;;;;5.20;97177.00;;;;5058208;28;20192;-57
2023/01/03 08:35:41;;;;;;;0.87;0.87;;;;;5.20;97184.00;;;;5051644;28;20228;-58
2023/01/03 08:38:12;;;;;;;1.47;1.07;;;;;5.20;97195.00;;;;5061183;28;20199;-58
2023/01/03 08:40:43;;;;;;;1.10;1.10;;;;;5.20;97191.00;;;;5052583;28;20244;-58
2023/01/03 08:43:12;;;;;;;1.00;1.00;;;;;5.10;97196.00;;;;5049410;28;20191;-58
2023/01/03 08:45:40;;;;;;;1.60;1.40;;;;;5.30;97187.00;;;;5061441;28;20231;-58
2023/01/03 08:48:08;;;;;;;1.80;1.70;;;;;5.20;97190.00;;;;5071020;28;20218;-58
2023/01/03 08:50:38;;;;;;;1.00;1.00;;;;;5.30;97198.00;;;;5070977;28;20206;-57
2023/01/03 08:53:06;;;;;;;1.10;1.10;;;;;5.30;97200.00;;;;5051085;28;20200;-58
2023/01/03 08:55:34;;;;;;;1.80;1.70;;;;;5.40;97187.00;;;;5051672;28;20302;-58
2023/01/03 08:58:03;;;;;;;6.37;5.77;;;;;5.50;97194.00;;;;5057366;28;20244;-58
2023/01/03 09:00:30;;;;;;;2.23;2.03;;;;;5.60;97203.00;;;;5053581;28;20285;-58
2023/01/03 09:02:59;;;;;;;2.07;1.97;;;;;5.60;97200.00;;;;5070852;28;20200;-58
2023/01/03 09:05:26;;;;;;;1.60;1.50;;;;;5.60;97208.00;;;;5071419;28;20241;-58
2023/01/03 09:07:54;;;;;;;1.70;1.60;;;;;5.60;97209.00;;;;5056416;28;20223;-58
2023/01/03 09:10:22;;;;;;;1.13;1.13;;;;;5.70;97211.00;;;;5051576;28;20222;-60
2023/01/03 09:12:50;;;;;;;2.43;1.90;;;;;5.70;97205.00;;;;5050581;28;20260;-57
2023/01/03 09:15:19;;;;;;;5.47;1.13;;;;;5.80;97209.00;;;;5051205;28;20787;-58
2023/01/03 09:17:48;;;;;;;1.10;1.10;;;;;5.90;97208.00;;;;5060701;28;20219;-57
2023/01/03 09:20:17;;;;;;;1.07;1.07;;;;;6.00;97223.00;;;;5050484;28;20196;-57
2023/01/03 09:22:46;;;;;;;1.17;1.17;;;;;5.90;97221.00;;;;5048126;28;20221;-57
2023/01/03 09:25:15;;;;;;;1.63;1.53;;;;;5.90;97222.00;;;;5070368;28;20264;-57
2023/01/03 09:27:46;;;;;;;2.00;1.10;;;;;5.90;97215.00;;;;5070661;28;20686;-57
2023/01/03 09:30:14;;;;;;;2.23;2.10;;;;;5.90;97226.00;;;;5070405;28;20218;-58
2023/01/03 09:32:43;;;;;;;1.10;1.10;;;;;5.90;97219.00;;;;5068660;28;20209;-58
2023/01/03 09:35:11;;;;;;;0.80;0.80;;;;;5.90;97226.00;;;;5050274;28;20326;-58
2023/01/03 09:37:38;;;;;;;0.90;0.90;;;;;5.90;97233.00;;;;5059739;28;20210;-58
2023/01/03 09:40:06;;;;;;;0.93;0.93;;;;;5.90;97248.00;;;;5070598;28;20512;-58
2023/01/03 09:45:27;;;;;;;1.13;1.10;;;;;5.90;97244.00;;;;5035666;28;20236;-58
2023/01/03 09:47:56;;;;;;;0.50;0.50;;;;;5.90;97242.00;;;;5050491;28;20207;-57
2023/01/03 09:50:27;;;;;;;0.87;0.87;;;;;6.00;97244.00;;;;5050558;28;20204;-58
2023/01/03 10:04:49;;;;;;;1.73;1.60;;;;;6.10;97238.00;;;;5050880;28;20382;-58
2023/01/03 10:07:28;;;;;;;0.80;0.80;;;;;6.10;97238.00;;;;5056263;28;20225;-58
2023/01/03 10:10:09;;;;;;;1.00;1.00;;;;;6.10;97238.00;;;;5047012;28;20186;-58
2023/01/03 10:12:44;;;;;;;0.90;0.90;;;;;6.00;97241.00;;;;5050638;28;20295;-58
2023/01/03 10:15:19;;;;;;;0.60;0.60;;;;;6.10;97237.00;;;;5050390;28;20694;-58
2023/01/03 10:18:00;;;;;;;0.60;0.60;;;;;6.00;97233.00;;;;5042655;28;20202;-58
2023/01/03 10:20:41;;;;;;;3.60;1.40;;;;;6.10;97242.00;;;;5070234;28;20190;-58
2023/01/03 10:23:11;;;;;;;0.60;0.60;;;;;6.20;97232.00;;;;5070105;28;20221;-57
2023/01/03 10:25:41;;;;;;;0.70;0.70;;;;;6.00;97239.00;;;;5071984;28;20222;-58
2023/01/03 10:28:17;;;;;;;0.77;0.77;;;;;6.00;97230.00;;;;5074335;28;20218;-58
2023/01/03 10:31:10;;;;;;;1.30;1.23;;;;;6.20;97233.00;;;;5050815;28;20192;-58
2023/01/03 10:33:40;;;;;;;0.80;0.80;;;;;6.50;97242.00;;;;5053804;28;20195;-59
2023/01/03 10:36:09;;;;;;;0.90;0.90;;;;;6.50;97233.00;;;;5054829;28;20282;-58
2023/01/03 10:38:38;;;;;;;0.70;0.70;;;;;6.60;97226.00;;;;5049689;28;20188;-57
2023/01/03 10:41:15;;;;;;;2.53;1.60;;;;;6.80;97217.00;;;;5049386;28;20356;-58
2023/01/03 10:43:44;;;;;;;8.00;1.53;;;;;6.90;97220.00;;;;5053990;28;20776;-58
2023/01/03 10:46:16;;;;;;;0.70;0.70;;;;;7.20;97214.00;;;;5054064;28;20227;-57
2023/01/03 10:48:45;;;;;;;1.03;1.03;;;;;7.30;97214.00;;;;5053459;28;20257;-60
2023/01/03 10:51:28;;;;;;;0.70;0.70;;;;;7.30;97206.00;;;;5054236;28;20219;-57
2023/01/03 10:53:58;;;;;;;0.90;0.90;;;;;7.60;97207.00;;;;5053942;28;20219;-57
2023/01/03 10:56:28;;;;;;;1.07;1.07;;;;;7.60;97201.00;;;;5053708;28;20211;-58
2023/01/03 10:59:12;;;;;;;0.87;0.80;;;;;7.80;97191.00;;;;5053267;28;20267;-58
2023/01/03 11:01:39;;;;;;;0.63;0.63;;;;;8.00;97187.00;;;;5053571;28;20196;-58
2023/01/03 11:04:12;;;;;;;0.67;0.67;;;;;8.20;97194.00;;;;5053472;28;20223;-59
2023/01/03 11:06:55;;;;;;;0.60;0.60;;;;;8.50;97177.00;;;;5035598;28;20199;-58
2023/01/03 11:09:22;;;;;;;0.63;0.63;;;;;9.20;97170.00;;;;5053585;28;20658;-58
2023/01/03 11:11:54;;;;;;;0.60;0.60;;;;;10.00;97163.00;;;;5053403;28;20889;-58
2023/01/03 11:14:27;;;;;;;1.60;1.50;;;;;10.90;97159.00;;;;5035507;28;20695;-58
2023/01/03 11:16:57;;;;;;;0.73;0.73;;;;;12.30;97138.00;;;;5053372;28;20196;-58
2023/01/03 11:19:28;;;;;;;0.70;0.70;;;;;13.10;97122.00;;;;5053299;28;20184;-59
2023/01/03 11:22:09;;;;;;;1.33;1.27;;;;;14.60;97114.00;;;;5053285;28;20255;-58
2023/01/03 11:25:01;;;;;;;0.70;0.70;;;;;15.50;97116.00;;;;5053567;28;20227;-59
2023/01/03 11:28:14;;;;;;;0.60;0.60;;;;;17.80;97118.00;;;;5051939;28;20200;-59
2023/01/03 11:30:52;;;;;;;0.63;0.63;;;;;19.10;97119.00;;;;5053486;28;20301;-57
2023/01/03 11:33:35;;;;;;;0.53;0.53;;;;;20.00;97124.00;;;;5048723;28;20184;-56
2023/01/03 11:36:25;;;;;;;1.33;0.77;;;;;20.00;97127.00;;;;5052965;28;20262;-58
2023/01/03 11:39:03;;;;;;;0.63;0.63;;;;;21.10;97124.00;;;;5046390;28;20211;-57
2023/01/03 11:41:56;;;;;;;0.60;0.60;;;;;22.50;97125.00;;;;5073206;28;20253;-58
2023/01/03 11:45:08;;;;;;;0.60;0.60;;;;;23.70;97123.00;;;;5048782;28;20308;-58
2023/01/03 11:47:44;;;;;;;0.80;0.80;;;;;23.70;97119.00;;;;5052845;28;20250;-58
2023/01/03 11:50:25;;;;;;;0.40;0.40;;;;;23.80;97118.00;;;;5051586;28;20683;-58
2023/01/03 11:53:01;;;;;;;0.30;0.30;;;;;22.30;97117.00;;;;5052929;28;20192;-58
2023/01/03 11:55:50;;;;;;;0.40;0.40;;;;;25.20;97115.00;;;;5052974;28;20583;-58
2023/01/03 11:58:55;;;;;;;0.30;0.30;;;;;26.50;97105.00;;;;5072629;28;20241;-59
2023/01/03 12:01:33;;;;;;;0.35;0.35;;;;;27.00;97103.00;;;;5052638;28;20249;-58
2023/01/03 12:04:23;;;;;;;0.38;0.38;;;;;27.10;97105.00;;;;5049809;28;20231;-59
2023/01/03 12:06:59;;;;;;;0.30;0.30;;;;;27.60;97111.00;;;;5052866;28;20196;-59
2023/01/03 12:09:31;;;;;;;0.50;0.50;;;;;30.00;97112.00;;;;5050797;28;20206;-59
2023/01/03 12:12:36;;;;;;;0.50;0.50;;;;;28.00;97119.00;;;;5052676;28;20250;-59
2023/01/03 12:15:15;;;;;;;0.73;0.73;;;;;25.90;97113.00;;;;5052490;28;20235;-59
2023/01/03 12:17:51;;;;;;;0.43;0.43;;;;;26.10;97111.00;;;;5072629;28;20179;-59
2023/01/03 12:20:23;;;;;;;0.40;0.40;;;;;25.90;97114.00;;;;5051273;28;20639;-59
2023/01/03 12:22:54;;;;;;;0.40;0.40;;;;;24.10;97107.00;;;;5066554;28;20195;-58
2023/01/03 12:25:28;;;;;;;0.40;0.40;;;;;24.30;97113.00;;;;5047542;28;20775;-59
2023/01/03 12:28:03;;;;;;;0.45;0.45;;;;;24.90;97106.00;;;;5047518;28;20274;-59
2023/01/03 12:30:37;;;;;;;0.50;0.50;;;;;23.30;97106.00;;;;5056441;28;20199;-59
2023/01/03 12:33:16;;;;;;;0.60;0.60;;;;;25.70;97107.00;;;;5071539;28;20230;-59
2023/01/03 12:35:50;;;;;;;0.60;0.60;;;;;25.30;97116.00;;;;5071501;28;20211;-59
2023/01/03 12:38:25;;;;;;;0.55;0.55;;;;;26.90;97118.00;;;;5045056;28;20199;-59
2023/01/03 12:40:56;;;;;;;0.65;0.65;;;;;26.00;97111.00;;;;5053804;28;20680;-59
2023/01/03 12:43:32;;;;;;;2.28;1.05;;;;;28.10;97114.00;;;;5072060;28;20192;-59
2023/01/03 12:46:06;;;;;;;1.05;1.05;;;;;29.10;97110.00;;;;5049943;28;20231;-59
2023/01/03 12:48:54;;;;;;;0.60;0.60;;;;;28.40;97118.00;;;;5051542;28;20207;-59
2023/01/03 12:51:24;;;;;;;0.45;0.45;;;;;29.20;97113.00;;;;5051256;28;20188;-59
2023/01/03 12:53:59;;;;;;;0.50;0.50;;;;;30.00;97118.00;;;;5052150;28;20538;-58
2023/01/03 12:56:50;;;;;;;0.60;0.60;;;;;30.30;97112.00;;;;5051119;28;20242;-59
2023/01/03 12:59:40;;;;;;;1.00;0.98;;;;;31.10;97128.00;;;;5035075;28;20288;-60
2023/01/03 13:02:17;;;;;;;0.55;0.55;;;;;30.30;97180.00;;;;5070860;28;20289;-59
2023/01/03 13:04:47;;;;;;;0.50;0.50;;;;;26.40;97095.00;;;;5026163;28;20303;-59
2023/01/03 13:07:19;;;;;;;0.63;0.63;;;;;28.40;97119.00;;;;5056822;28;20203;-58
2023/01/03 13:09:52;;;;;;;0.47;0.47;;;;;24.10;97189.00;;;;5071043;28;20207;-58
2023/01/03 13:12:22;;;;;;;0.60;0.60;;;;;20.20;97190.00;;;;5065275;28;20184;-58
2023/01/03 13:14:56;;;;;;;2.80;0.75;;;;;18.30;97180.00;;;;5051013;28;20223;-58
2023/01/03 13:17:26;;;;;;;0.40;0.40;;;;;16.80;97183.00;;;;5050655;28;20200;-60
2023/01/03 13:19:57;;;;;;;0.45;0.45;;;;;16.20;97185.00;;;;5050946;28;20192;-59
2023/01/03 13:22:46;;;;;;;0.50;0.50;;;;;15.60;97177.00;;;;5050227;28;20192;-59
2023/01/03 13:25:39;;;;;;;0.30;0.30;;;;;16.70;97181.00;;;;5049375;28;20239;-59
2023/01/03 13:28:28;;;;;;;0.40;0.40;;;;;15.00;97172.00;;;;5051108;28;20200;-58
2023/01/03 13:31:28;;;;;;;0.97;0.97;;;;;13.30;97178.00;;;;5051019;28;20219;-59
2023/01/03 13:34:11;;;;;;;0.50;0.50;;;;;13.10;97148.00;;;;5035539;28;20615;-59
2023/01/03 13:37:09;;;;;;;0.40;0.40;;;;;13.40;97138.00;;;;5050626;28;20218;-58
2023/01/03 13:39:39;;;;;;;0.60;0.60;;;;;16.90;97110.00;;;;5049667;28;20235;-59
2023/01/03 13:42:18;;;;;;;0.63;0.63;;;;;19.00;97167.00;;;;5045407;28;20542;-59
2023/01/03 13:44:46;;;;;;;0.60;0.60;;;;;22.90;97094.00;;;;5047471;28;20230;-59
2023/01/03 13:47:24;;;;;;;0.50;0.50;;;;;26.90;97102.00;;;;5050477;28;20208;-59
2023/01/03 13:49:53;;;;;;;7.65;1.15;;;;;28.10;97103.00;;;;5049192;28;20204;-59
2023/01/03 13:52:36;;;;;;;0.60;0.60;;;;;29.10;97101.00;;;;5053359;28;20253;-60
2023/01/03 13:55:05;;;;;;;0.40;0.40;;;;;24.80;97104.00;;;;5049120;28;20216;-59
2023/01/03 13:57:53;;;;;;;0.50;0.50;;;;;21.90;97101.00;;;;5050022;28;20200;-59
2023/01/03 14:00:23;;;;;;;1.10;1.10;;;;;25.70;97100.00;;;;5063832;28;20196;-59